CYVP

Details ICAO CYVP (YVP)
Name KUUJJUAQ
Region Canada
Timezone America/Montreal (UTC-4.0)
Plans Departing 41
Arriving 55
Stats Elevation 129 ft / 39 m (AMSL)
Location 58.096945° -68.423333°
Runways 2
Magnetic Variation 22.560° W
Sunrise 2018-05-20 08:00:08 UTC / 2018-05-20 04:00:08 Local
Sunset 2018-05-21 01:03:11 UTC / 2018-05-20 21:03:11 Local
Advertisement - Login to hide

Runways

ID Width Length Bearing (true) Bearing (mag) Surface Threshold Offset Overrun Length
07 150 ft / 46 m 6,002 ft / 1,829 m 43.43° 65.99° Asphalt 0 ft / 0 m 0 ft / 0 m
13 150 ft / 46 m 5,000 ft / 1,524 m 102.88° 125.44° Gravel 0 ft / 0 m 0 ft / 0 m
25 150 ft / 46 m 6,002 ft / 1,829 m 223.45° 246.01° Asphalt 0 ft / 0 m 0 ft / 0 m
31 150 ft / 46 m 5,000 ft / 1,524 m 282.90° 305.46° Gravel 0 ft / 0 m 0 ft / 0 m

Map

Weather


0- 5 10 15 20 25 30 35+ Temperature / ° C

Clouds and Precipitation
Forecast for 2018-05-21 06:00 UTC. Updated 28 minutes ago

Ground ~20,000 ft ~40,000 ft Winds

METAR

CYVP 210300Z 04002KT 15SM SCT021 BKN240 M10/M11 A2967 RMK SC3CI4 SLP053

TAF

TAF CYVP 202338Z 2100/2112 VRB03KT P6SM BKN020 TEMPO 2100/2107 SCT020 FM210700 02005KT P6SM BKN020 OVC120 RMK NXT FCST BY 210600Z

Frequencies

Tower 122.20 MHz ARPT RDO
Tower 122.20 MHz MF
Warning: Do not use this data for real-world aviation or navigation. No guarantee of current accuracy is given.